Details for Delta Airlines at KBOS




Go Back


Latest METAR
Local Time

KBOS 241254Z 27008KT 10SM SCT140 BKN200 08/04 A3009 RMK AO2 SLP190 T00780044

24/02/2018, 08:43:06

Description
Results
Delta Airlines Logo
Number of Pilots based at KBOS
0 Pilots Based here
Number of Delta Airlines Flights Departed from KBOS
0 Flights Departed
Number of Delta Airlines Flights Arrived at KBOS
0 Flights Arrived
Number of Delta Airlines Schedules Departing from KBOS
200 Schedules
Number of Delta Airlines Schedules Arriving at KBOS
205 Schedules
Number of Delta Airlines Schedules Departing from KBOS availible today
67 Schedules Today
Number of Delta Airlines Schedules Arriving at KBOS availible today
78 Schedules Today
Average Landing Rate at KBOS
-314 fpm
Delta Airlines Average Landing Rate at KBOS
0 fpm
Total Fuel Purchased at KBOS by Delta Airlines
0.00 kgs / 0.00 lbs

Pilots Based at KBOS


Pilot ID
Pilot Name
Pilot Rank
No. of Flights
No. of Flying Hours
There are no pilots assigned to this hub!   Will you be the first?
Content